Time;durP1;ratioP1;P1;durP2;ratioP2;P2;SDS_P1;SDS_P2;PMS_P1;PMS_P2;Temp;Humidity;BMP_temperature;BMP_pressure;BME280_temperature;BME280_humidity;BME280_pressure;Samples;Min_cycle;Max_cycle;Signal;HPM_P1;HPM_P2
2023/01/28 00:00:17;;;;;;;1.45;1.30;;;14.80;49.10;;;;;;5105189;27;45324;-69
2023/01/28 00:02:48;;;;;;;3.03;1.38;;;14.90;49.20;;;;;;5103303;27;45305;-69
2023/01/28 00:05:15;;;;;;;2.13;1.33;;;14.90;49.20;;;;;;5103674;27;45454;-69
2023/01/28 00:07:42;;;;;;;3.20;1.33;;;14.90;49.20;;;;;;5103781;27;45542;-69
2023/01/28 00:10:10;;;;;;;1.75;1.30;;;14.90;49.20;;;;;;5102088;27;45271;-69
2023/01/28 00:12:36;;;;;;;1.52;1.17;;;14.90;49.20;;;;;;5102167;27;47311;-69
2023/01/28 00:15:04;;;;;;;1.25;1.00;;;14.90;49.20;;;;;;5104982;27;45427;-69
2023/01/28 00:17:31;;;;;;;1.85;1.20;;;14.90;49.20;;;;;;5104085;27;45340;-69
2023/01/28 00:19:59;;;;;;;1.30;1.10;;;14.80;49.10;;;;;;5105038;27;45472;-69
2023/01/28 00:22:26;;;;;;;1.35;1.00;;;14.80;49.10;;;;;;5100802;27;45471;-69
2023/01/28 00:24:53;;;;;;;2.75;1.33;;;14.80;49.10;;;;;;5095429;27;45362;-69
2023/01/28 00:27:20;;;;;;;2.55;1.67;;;14.80;49.10;;;;;;5090847;27;45379;-70
2023/01/28 00:29:47;;;;;;;1.00;0.90;;;14.80;49.10;;;;;;5104814;27;45416;-68
2023/01/28 00:32:14;;;;;;;2.40;1.20;;;14.80;49.10;;;;;;5098539;27;47891;-69
2023/01/28 00:34:41;;;;;;;2.05;1.20;;;14.80;49.10;;;;;;5095569;27;45499;-69
2023/01/28 00:37:10;;;;;;;1.77;1.25;;;14.90;49.20;;;;;;5086799;27;45456;-69
2023/01/28 00:39:36;;;;;;;2.13;1.27;;;14.90;49.20;;;;;;5096051;27;45272;-70
2023/01/28 00:42:03;;;;;;;1.63;1.13;;;14.90;49.20;;;;;;5099589;27;48156;-68
2023/01/28 00:44:30;;;;;;;1.08;0.98;;;14.90;49.20;;;;;;5104392;27;45361;-69
2023/01/28 00:46:57;;;;;;;1.08;0.77;;;14.90;49.20;;;;;;5103996;27;45310;-68
2023/01/28 00:49:24;;;;;;;0.90;0.90;;;14.90;49.20;;;;;;5104406;27;45430;-69
2023/01/28 00:51:50;;;;;;;0.95;0.77;;;14.90;49.20;;;;;;5104085;27;46429;-68
2023/01/28 00:54:18;;;;;;;1.92;0.77;;;14.80;49.10;;;;;;5104123;27;45428;-68
2023/01/28 00:56:45;;;;;;;2.03;1.08;;;14.90;49.20;;;;;;5102196;27;45651;-68
2023/01/28 00:59:12;;;;;;;1.00;0.90;;;14.90;49.20;;;;;;5094945;27;45316;-69
2023/01/28 01:01:39;;;;;;;1.95;0.90;;;14.80;49.10;;;;;;5098303;27;46713;-69
2023/01/28 01:04:06;;;;;;;1.98;1.00;;;14.80;49.10;;;;;;5093529;27;45725;-69
2023/01/28 01:06:35;;;;;;;1.02;0.88;;;14.80;49.10;;;;;;5097125;27;45367;-68
2023/01/28 01:09:02;;;;;;;1.38;1.00;;;14.80;49.10;;;;;;5097830;27;45323;-69
2023/01/28 01:11:31;;;;;;;1.55;1.00;;;14.90;49.20;;;;;;5098257;27;46608;-69
2023/01/28 01:13:59;;;;;;;1.15;0.82;;;14.90;49.20;;;;;;5099912;27;45291;-69
2023/01/28 01:16:28;;;;;;;1.23;0.90;;;14.90;49.20;;;;;;5098452;27;45253;-69
2023/01/28 01:18:56;;;;;;;1.75;1.00;;;14.90;49.20;;;;;;5103939;27;45577;-68
2023/01/28 01:21:25;;;;;;;1.17;0.90;;;14.90;49.20;;;;;;5097680;27;45315;-68
2023/01/28 01:23:52;;;;;;;1.00;0.90;;;14.90;49.20;;;;;;5091988;27;45344;-69
2023/01/28 01:26:20;;;;;;;1.52;1.20;;;14.90;49.20;;;;;;5103287;27;45290;-69
2023/01/28 01:28:48;;;;;;;1.85;1.10;;;14.90;49.20;;;;;;5103914;27;45632;-68
2023/01/28 01:31:17;;;;;;;1.38;1.27;;;14.80;49.10;;;;;;5103475;27;48472;-68
2023/01/28 01:33:47;;;;;;;1.77;1.48;;;14.80;49.10;;;;;;5099217;27;45398;-69
2023/01/28 01:36:15;;;;;;;1.80;1.08;;;14.80;49.10;;;;;;5101852;27;45437;-68
2023/01/28 01:38:42;;;;;;;1.52;1.20;;;14.80;49.00;;;;;;5103810;27;45553;-69
2023/01/28 01:41:13;;;;;;;2.42;1.45;;;14.80;48.90;;;;;;5103382;27;47510;-69
2023/01/28 01:43:50;;;;;;;2.25;1.25;;;14.80;48.80;;;;;;5091739;27;45377;-68
2023/01/28 01:46:20;;;;;;;2.63;1.50;;;14.80;48.50;;;;;;5096421;27;45534;-69
2023/01/28 01:48:48;;;;;;;2.05;1.40;;;14.80;48.50;;;;;;5102010;27;45431;-69
2023/01/28 01:51:19;;;;;;;1.58;1.30;;;14.80;48.30;;;;;;5099728;27;45368;-68
2023/01/28 01:53:51;;;;;;;2.17;1.30;;;14.80;48.10;;;;;;5103748;27;45355;-68
2023/01/28 01:56:22;;;;;;;1.80;1.40;;;14.90;48.20;;;;;;5102808;27;45332;-69
2023/01/28 01:58:53;;;;;;;1.30;1.20;;;14.90;48.10;;;;;;5102159;27;45245;-68
2023/01/28 02:01:22;;;;;;;1.80;1.23;;;14.90;48.10;;;;;;5102069;27;45423;-69
2023/01/28 02:03:55;;;;;;;1.70;1.33;;;14.90;48.00;;;;;;5101892;27;45471;-69
2023/01/28 02:06:22;;;;;;;1.63;1.30;;;14.80;48.00;;;;;;5094855;27;45401;-69
2023/01/28 02:08:49;;;;;;;2.55;1.35;;;14.80;47.90;;;;;;5103275;27;45313;-69
2023/01/28 02:11:18;;;;;;;1.50;1.20;;;14.80;47.70;;;;;;5102929;27;46575;-69
2023/01/28 02:13:48;;;;;;;2.78;1.30;;;14.80;47.80;;;;;;5099041;27;45433;-68
2023/01/28 02:16:17;;;;;;;3.08;1.50;;;14.80;48.00;;;;;;5102603;27;45227;-69
2023/01/28 02:18:44;;;;;;;1.90;1.20;;;14.80;48.00;;;;;;5102510;27;45549;-69
2023/01/28 02:21:46;;;;;;;1.77;1.45;;;14.80;47.80;;;;;;5102974;27;45431;-68
2023/01/28 02:24:38;;;;;;;1.80;1.40;;;14.80;47.70;;;;;;5095187;27;45313;-68
2023/01/28 02:27:24;;;;;;;1.73;1.33;;;14.80;47.50;;;;;;5102240;27;45284;-67
2023/01/28 02:29:58;;;;;;;2.28;1.42;;;14.80;47.40;;;;;;5095837;27;45440;-69
2023/01/28 02:32:34;;;;;;;1.58;1.40;;;14.80;47.40;;;;;;5102952;27;46274;-68
2023/01/28 02:35:07;;;;;;;1.63;1.40;;;14.80;47.40;;;;;;5103289;27;45271;-69
2023/01/28 02:37:40;;;;;;;2.67;1.40;;;14.80;47.30;;;;;;5106443;27;45258;-69
2023/01/28 02:40:12;;;;;;;1.60;1.23;;;14.80;47.20;;;;;;5102546;27;45472;-68
2023/01/28 02:42:41;;;;;;;1.95;1.52;;;14.80;47.20;;;;;;5106729;27;45281;-68
2023/01/28 02:45:18;;;;;;;2.33;1.30;;;14.80;47.30;;;;;;5106146;27;45438;-68
2023/01/28 02:47:59;;;;;;;1.75;1.40;;;14.80;47.20;;;;;;5106382;27;45237;-68
2023/01/28 02:50:35;;;;;;;1.20;1.10;;;14.80;47.00;;;;;;5101524;27;45346;-69
2023/01/28 02:56:02;;;;;;;1.48;1.23;;;14.70;46.20;;;;;;5106026;27;45332;-69
2023/01/28 02:58:35;;;;;;;2.85;1.52;;;14.70;46.20;;;;;;5101782;27;45376;-68
2023/01/28 03:01:10;;;;;;;2.00;1.40;;;14.60;46.00;;;;;;5106551;27;45311;-68
2023/01/28 03:03:48;;;;;;;3.83;1.40;;;14.60;45.50;;;;;;5096926;27;46372;-69
2023/01/28 03:06:20;;;;;;;1.98;1.40;;;14.70;45.80;;;;;;5105341;27;45348;-68
2023/01/28 03:36:49;;;;;;;2.75;1.88;;;14.70;46.90;;;;;;5103699;27;45517;-68
2023/01/28 03:39:18;;;;;;;2.10;1.90;;;14.70;46.80;;;;;;5102252;27;45310;-69
2023/01/28 03:41:57;;;;;;;2.15;1.70;;;14.70;46.80;;;;;;5105782;27;45361;-69
2023/01/28 03:47:10;;;;;;;2.70;1.80;;;14.80;46.90;;;;;;5100623;27;45288;-69
2023/01/28 03:49:39;;;;;;;2.33;1.80;;;14.80;46.60;;;;;;5095939;27;45459;-68
2023/01/28 03:52:06;;;;;;;2.70;1.67;;;14.80;46.60;;;;;;5105387;27;45314;-69
2023/01/28 03:54:33;;;;;;;2.65;1.75;;;14.80;46.60;;;;;;5103039;27;45284;-69
2023/01/28 03:57:00;;;;;;;2.42;1.70;;;14.80;46.60;;;;;;5093499;27;46414;-68
2023/01/28 03:59:26;;;;;;;2.30;1.90;;;14.70;46.50;;;;;;5096940;27;45411;-68
2023/01/28 04:01:54;;;;;;;3.35;1.67;;;14.70;46.60;;;;;;5098574;27;45245;-69
2023/01/28 04:04:23;;;;;;;2.75;1.90;;;14.70;46.60;;;;;;5099688;27;45741;-69
2023/01/28 04:06:52;;;;;;;2.15;1.77;;;14.70;46.60;;;;;;5099878;27;45473;-69
2023/01/28 04:09:19;;;;;;;2.80;1.73;;;14.70;46.60;;;;;;5101785;27;45353;-69
2023/01/28 04:11:46;;;;;;;2.33;1.63;;;14.70;46.60;;;;;;5104883;27;45250;-69
2023/01/28 04:14:14;;;;;;;2.10;1.85;;;14.70;46.60;;;;;;5099402;27;45381;-69
2023/01/28 04:16:40;;;;;;;3.67;2.00;;;14.70;46.50;;;;;;5091666;27;46904;-69
2023/01/28 04:19:07;;;;;;;2.55;1.98;;;14.70;45.90;;;;;;5092528;27;45410;-69
2023/01/28 04:21:34;;;;;;;2.85;2.17;;;14.70;45.60;;;;;;5099139;27;45297;-69
2023/01/28 04:24:03;;;;;;;4.03;2.40;;;14.70;45.20;;;;;;5093218;27;45282;-69
2023/01/28 04:26:29;;;;;;;3.35;2.15;;;14.70;44.90;;;;;;5102613;27;46011;-68
2023/01/28 04:28:56;;;;;;;4.30;2.92;;;14.70;44.70;;;;;;5099288;27;45265;-69
2023/01/28 04:31:23;;;;;;;3.83;2.50;;;14.70;44.50;;;;;;5104347;27;45256;-69
2023/01/28 04:33:50;;;;;;;3.22;2.40;;;14.60;44.30;;;;;;5105045;27;45545;-69
2023/01/28 04:36:17;;;;;;;4.07;2.50;;;14.60;44.30;;;;;;5103822;27;47532;-70
2023/01/28 04:38:44;;;;;;;4.25;2.53;;;14.60;44.20;;;;;;5103830;27;45598;-69
2023/01/28 04:41:12;;;;;;;3.22;2.42;;;14.60;44.10;;;;;;5104483;27;45339;-69
2023/01/28 04:43:39;;;;;;;4.32;2.97;;;14.60;44.20;;;;;;5105078;27;45197;-69
2023/01/28 04:46:06;;;;;;;3.83;2.80;;;14.60;46.10;;;;;;5103080;27;45440;-68
2023/01/28 04:48:33;;;;;;;6.45;2.90;;;14.60;45.70;;;;;;5104161;27;45476;-69
2023/01/28 04:51:00;;;;;;;4.25;2.88;;;14.60;45.30;;;;;;5104717;27;45296;-70
2023/01/28 04:53:27;;;;;;;3.83;2.85;;;14.60;45.10;;;;;;5104872;27;45428;-68
2023/01/28 04:55:54;;;;;;;4.30;3.35;;;14.60;44.80;;;;;;5101201;27;47540;-69
2023/01/28 04:58:22;;;;;;;3.83;2.95;;;14.60;44.80;;;;;;5101631;27;45262;-69
2023/01/28 05:00:53;;;;;;;4.30;2.70;;;14.60;44.50;;;;;;5104490;27;45400;-69
2023/01/28 05:03:20;;;;;;;4.18;2.92;;;14.60;44.70;;;;;;5102715;27;45236;-69
2023/01/28 05:05:47;;;;;;;4.03;2.97;;;14.60;44.60;;;;;;5100451;27;46912;-69
2023/01/28 05:08:14;;;;;;;5.15;2.95;;;14.60;44.30;;;;;;5100739;27;45490;-69
2023/01/28 05:10:41;;;;;;;3.78;2.78;;;14.60;44.10;;;;;;5104062;27;45474;-69
2023/01/28 05:13:08;;;;;;;4.90;2.60;;;14.60;44.10;;;;;;5096312;27;45364;-68
2023/01/28 05:15:36;;;;;;;4.22;2.90;;;14.60;44.10;;;;;;5094251;27;45481;-69
2023/01/28 05:18:03;;;;;;;3.25;2.42;;;14.60;44.00;;;;;;5096737;27;45709;-69
2023/01/28 05:20:29;;;;;;;4.18;2.65;;;14.60;43.90;;;;;;5095862;27;45331;-69
2023/01/28 05:22:56;;;;;;;5.70;2.58;;;14.60;43.90;;;;;;5099475;27;45359;-69
2023/01/28 05:25:23;;;;;;;4.35;2.95;;;14.60;43.80;;;;;;5103029;27;45443;-69
2023/01/28 05:27:51;;;;;;;4.88;3.00;;;14.50;43.70;;;;;;5103895;27;45355;-69
2023/01/28 05:30:18;;;;;;;4.47;3.20;;;14.60;43.70;;;;;;5098517;27;45353;-69
2023/01/28 05:32:46;;;;;;;4.03;3.08;;;14.60;43.60;;;;;;5104111;27;45281;-69
2023/01/28 05:35:13;;;;;;;5.18;3.47;;;14.60;43.50;;;;;;5102058;27;46774;-69
2023/01/28 05:37:40;;;;;;;4.55;3.40;;;14.60;43.60;;;;;;5103583;27;45404;-69
2023/01/28 05:40:08;;;;;;;5.00;3.58;;;14.60;43.50;;;;;;5103967;27;45333;-69
2023/01/28 05:42:34;;;;;;;5.18;3.95;;;14.60;43.40;;;;;;5103597;27;45573;-70
2023/01/28 05:45:02;;;;;;;4.65;3.28;;;14.60;43.10;;;;;;5100442;27;47497;-69
2023/01/28 05:47:28;;;;;;;4.43;3.30;;;14.60;43.00;;;;;;5090399;27;45449;-69
2023/01/28 05:49:56;;;;;;;4.93;3.55;;;14.60;43.10;;;;;;5090410;27;45451;-69
2023/01/28 05:52:23;;;;;;;3.95;3.03;;;14.60;42.90;;;;;;5094727;27;45258;-69
2023/01/28 05:54:50;;;;;;;5.25;3.65;;;14.60;43.00;;;;;;5094668;27;45510;-69
2023/01/28 05:57:17;;;;;;;4.30;3.35;;;14.60;43.00;;;;;;5096714;27;45350;-69
2023/01/28 05:59:43;;;;;;;6.00;3.22;;;14.50;42.80;;;;;;5101046;27;45401;-69
2023/01/28 06:02:11;;;;;;;4.63;3.22;;;14.50;42.80;;;;;;5098451;27;45437;-69
2023/01/28 06:04:38;;;;;;;4.47;3.20;;;14.50;42.60;;;;;;5089988;27;45328;-69
2023/01/28 06:07:07;;;;;;;4.38;2.95;;;14.50;42.60;;;;;;5100668;27;45420;-69
2023/01/28 06:09:33;;;;;;;3.88;2.85;;;14.50;42.60;;;;;;5102618;27;45449;-69
2023/01/28 06:12:00;;;;;;;7.90;2.80;;;14.60;42.50;;;;;;5099894;27;45424;-69
2023/01/28 06:14:27;;;;;;;3.70;2.60;;;14.60;42.70;;;;;;5095564;27;45546;-69
2023/01/28 06:16:54;;;;;;;3.70;2.63;;;14.60;42.50;;;;;;5098218;27;45379;-68
2023/01/28 06:19:20;;;;;;;3.80;2.67;;;14.60;42.40;;;;;;5103364;27;45467;-69
2023/01/28 06:21:47;;;;;;;3.40;2.53;;;14.60;42.30;;;;;;5098174;27;45344;-69
2023/01/28 06:24:15;;;;;;;3.55;2.67;;;14.60;42.10;;;;;;5102655;27;47523;-69
2023/01/28 06:26:42;;;;;;;3.58;2.50;;;14.60;42.20;;;;;;5101956;27;45368;-69
2023/01/28 06:29:09;;;;;;;2.97;2.67;;;14.60;42.20;;;;;;5100528;27;45414;-69
2023/01/28 06:31:36;;;;;;;3.28;2.28;;;14.60;42.20;;;;;;5101522;27;45459;-69
2023/01/28 06:34:03;;;;;;;2.80;2.28;;;14.60;42.00;;;;;;5102883;27;47743;-68
2023/01/28 06:36:30;;;;;;;3.97;2.45;;;14.50;41.80;;;;;;5100578;27;45378;-68
2023/01/28 06:38:57;;;;;;;3.47;2.42;;;14.50;41.80;;;;;;5098103;27;45264;-69
2023/01/28 06:41:25;;;;;;;2.90;2.30;;;14.50;41.80;;;;;;5104187;27;45450;-69
2023/01/28 06:43:52;;;;;;;3.63;2.53;;;14.50;41.70;;;;;;5109194;27;45249;-69
2023/01/28 06:46:19;;;;;;;4.97;2.22;;;14.60;42.00;;;;;;5092349;27;45349;-69
2023/01/28 06:48:46;;;;;;;2.97;2.20;;;14.60;42.70;;;;;;5093914;27;45359;-69
2023/01/28 06:51:12;;;;;;;3.28;2.13;;;14.60;42.20;;;;;;5093288;27;45341;-69
2023/01/28 06:53:39;;;;;;;2.30;2.03;;;14.60;42.30;;;;;;5088681;27;45478;-69
2023/01/28 06:56:07;;;;;;;2.10;1.90;;;14.60;41.90;;;;;;5095712;27;45532;-69
2023/01/28 06:58:35;;;;;;;3.58;2.00;;;14.60;41.80;;;;;;5101934;27;45470;-69
2023/01/28 07:01:02;;;;;;;2.22;1.92;;;14.60;41.50;;;;;;5103142;27;45471;-69
2023/01/28 07:03:29;;;;;;;2.03;1.70;;;14.60;41.40;;;;;;5098003;27;47108;-69
2023/01/28 07:05:56;;;;;;;2.58;1.90;;;14.60;41.50;;;;;;5093253;27;46352;-69
2023/01/28 07:08:23;;;;;;;2.65;1.80;;;14.50;41.30;;;;;;5096884;27;45472;-69
2023/01/28 07:10:49;;;;;;;3.22;1.83;;;14.50;41.10;;;;;;5106202;27;45410;-69
2023/01/28 07:13:16;;;;;;;2.55;1.83;;;14.50;41.10;;;;;;5100498;27;46621;-69
2023/01/28 07:15:44;;;;;;;2.20;1.90;;;14.50;41.10;;;;;;5101145;27;45364;-69
2023/01/28 07:18:11;;;;;;;3.63;1.80;;;14.50;41.00;;;;;;5099919;27;45372;-69
2023/01/28 07:20:38;;;;;;;2.03;1.83;;;14.50;41.10;;;;;;5101492;27;45424;-69
2023/01/28 07:23:05;;;;;;;2.83;1.80;;;14.50;41.20;;;;;;5104786;27;47008;-69
2023/01/28 07:25:32;;;;;;;2.45;1.90;;;14.50;41.00;;;;;;5104613;27;45450;-69
2023/01/28 07:27:58;;;;;;;3.15;1.77;;;14.50;41.10;;;;;;5106210;27;45455;-69
2023/01/28 07:30:25;;;;;;;3.25;1.75;;;14.50;41.00;;;;;;5101045;27;45565;-69
2023/01/28 07:32:58;;;;;;;2.78;1.80;;;14.60;41.10;;;;;;5105398;27;46605;-69
2023/01/28 07:35:25;;;;;;;2.30;1.80;;;14.50;40.90;;;;;;5105256;27;45448;-69
2023/01/28 07:37:53;;;;;;;3.85;1.73;;;14.50;40.70;;;;;;5105505;27;45500;-69
2023/01/28 07:40:20;;;;;;;2.33;1.83;;;14.50;40.70;;;;;;5105452;27;45293;-69
2023/01/28 07:42:47;;;;;;;2.20;1.73;;;14.50;40.70;;;;;;5105677;27;47119;-69
2023/01/28 07:45:14;;;;;;;2.15;1.92;;;14.50;40.70;;;;;;5105133;27;45488;-69
2023/01/28 07:47:41;;;;;;;3.50;1.85;;;14.50;40.60;;;;;;5093963;27;45392;-69
2023/01/28 07:50:11;;;;;;;2.60;2.00;;;14.50;40.70;;;;;;5101130;27;45338;-69
2023/01/28 07:52:44;;;;;;;3.08;2.13;;;14.40;40.60;;;;;;5101538;27;47514;-69
2023/01/28 07:55:14;;;;;;;3.75;2.20;;;14.40;40.50;;;;;;5107656;27;45475;-68
2023/01/28 07:57:48;;;;;;;3.20;2.10;;;14.40;40.60;;;;;;5097217;27;45475;-69
2023/01/28 08:00:16;;;;;;;2.97;1.90;;;14.40;40.60;;;;;;5102309;27;45473;-68
2023/01/28 08:02:43;;;;;;;2.72;1.90;;;14.40;40.80;;;;;;5103186;27;46308;-69
2023/01/28 08:05:11;;;;;;;2.63;2.13;;;14.40;40.50;;;;;;5099075;27;45311;-69
2023/01/28 08:07:38;;;;;;;3.92;1.90;;;14.40;40.60;;;;;;5100149;27;45359;-69
2023/01/28 08:10:06;;;;;;;4.15;2.28;;;14.50;40.70;;;;;;5102873;27;45551;-69
2023/01/28 08:12:33;;;;;;;2.22;1.98;;;14.50;40.70;;;;;;5104888;27;46383;-69
2023/01/28 08:14:59;;;;;;;3.17;2.15;;;14.40;40.50;;;;;;5100186;27;45241;-68
2023/01/28 08:17:27;;;;;;;2.38;2.17;;;14.40;40.60;;;;;;5104841;27;45419;-68
2023/01/28 08:19:54;;;;;;;4.82;2.40;;;14.40;40.70;;;;;;5101991;27;45336;-69
2023/01/28 08:22:25;;;;;;;3.25;2.35;;;14.40;40.80;;;;;;5098007;27;45507;-68
2023/01/28 08:24:52;;;;;;;2.75;2.17;;;14.40;40.20;;;;;;5102423;27;45263;-68
2023/01/28 08:27:19;;;;;;;2.53;2.30;;;14.40;40.20;;;;;;5108076;27;45294;-69
2023/01/28 08:29:46;;;;;;;3.55;2.30;;;14.40;40.00;;;;;;5107995;27;45734;-69
2023/01/28 08:32:12;;;;;;;2.85;2.28;;;14.30;40.00;;;;;;5104376;27;47532;-69
2023/01/28 08:34:39;;;;;;;2.95;2.45;;;14.30;41.20;;;;;;5103637;27;45284;-69
2023/01/28 08:37:06;;;;;;;3.88;2.75;;;14.30;40.00;;;;;;5100002;27;45325;-69
2023/01/28 08:39:34;;;;;;;2.75;2.28;;;14.40;40.10;;;;;;5103146;27;45581;-69
2023/01/28 08:42:01;;;;;;;2.90;2.35;;;14.40;40.00;;;;;;5102923;27;48032;-69
2023/01/28 08:44:28;;;;;;;2.90;2.60;;;14.40;39.80;;;;;;5102558;27;45297;-69
2023/01/28 08:46:54;;;;;;;4.47;2.25;;;14.40;39.90;;;;;;5097280;27;45414;-69
2023/01/28 08:49:21;;;;;;;2.72;2.28;;;14.40;39.80;;;;;;5105341;27;45331;-69
2023/01/28 08:51:48;;;;;;;4.22;2.35;;;14.40;39.60;;;;;;5098706;27;46725;-69
2023/01/28 08:54:15;;;;;;;2.72;2.00;;;14.40;39.50;;;;;;5103830;27;46504;-70
2023/01/28 08:56:43;;;;;;;4.05;2.40;;;14.40;41.60;;;;;;5094222;27;45330;-69
2023/01/28 08:59:10;;;;;;;3.30;2.47;;;14.40;43.80;;;;;;5102990;27;45504;-68
2023/01/28 09:01:37;;;;;;;3.05;2.50;;;14.40;42.50;;;;;;5104521;27;46582;-69
2023/01/28 09:04:04;;;;;;;5.07;2.97;;;14.40;41.70;;;;;;5094596;27;45356;-69
2023/01/28 09:06:31;;;;;;;4.45;3.40;;;14.40;41.30;;;;;;5097495;27;45432;-69
2023/01/28 09:08:57;;;;;;;3.78;3.22;;;14.30;40.90;;;;;;5099726;27;45311;-69
2023/01/28 09:11:24;;;;;;;3.75;3.30;;;14.30;40.70;;;;;;5098727;27;46637;-69
2023/01/28 09:13:52;;;;;;;4.40;3.10;;;14.30;40.50;;;;;;5095760;27;45464;-69
2023/01/28 09:16:19;;;;;;;3.90;3.00;;;14.30;40.10;;;;;;5093767;27;45292;-70
2023/01/28 09:18:47;;;;;;;4.00;3.00;;;14.30;39.70;;;;;;5104182;27;45463;-69
2023/01/28 09:21:14;;;;;;;3.72;2.95;;;14.30;39.40;;;;;;5103716;27;46649;-70
2023/01/28 09:23:41;;;;;;;3.47;2.58;;;14.30;39.30;;;;;;5103777;27;45253;-69
2023/01/28 09:26:08;;;;;;;3.28;2.47;;;14.30;39.10;;;;;;5093848;27;45252;-69
2023/01/28 09:28:37;;;;;;;4.13;2.60;;;14.30;38.90;;;;;;5090303;27;45632;-69
2023/01/28 09:31:07;;;;;;;2.88;2.60;;;14.30;39.00;;;;;;5090299;27;47644;-69
2023/01/28 09:33:35;;;;;;;3.95;2.67;;;14.30;39.20;;;;;;5102334;27;45273;-69
2023/01/28 09:36:04;;;;;;;5.00;2.83;;;14.20;39.10;;;;;;5101998;27;45471;-69
2023/01/28 09:38:31;;;;;;;3.67;3.03;;;14.20;39.00;;;;;;5100033;27;45477;-69
2023/01/28 09:41:00;;;;;;;3.53;2.85;;;14.30;39.20;;;;;;5100856;27;46364;-69
2023/01/28 09:43:44;;;;;;;4.60;3.97;;;14.20;38.90;;;;;;5102961;27;45537;-69
2023/01/28 09:46:14;;;;;;;4.30;3.05;;;14.30;38.90;;;;;;5091741;27;45365;-69
2023/01/28 09:48:44;;;;;;;4.82;3.17;;;14.30;39.00;;;;;;5096000;27;45472;-69
2023/01/28 09:51:22;;;;;;;3.30;2.80;;;14.20;38.90;;;;;;5103711;27;47104;-69
2023/01/28 09:53:53;;;;;;;4.25;3.17;;;14.30;39.10;;;;;;5096964;27;45394;-69
2023/01/28 09:56:28;;;;;;;3.67;3.22;;;14.30;39.00;;;;;;5103084;27;45397;-68
2023/01/28 09:58:56;;;;;;;5.93;3.42;;;14.30;38.80;;;;;;5103390;27;45476;-69
2023/01/28 10:01:38;;;;;;;4.55;3.75;;;14.40;38.70;;;;;;5101966;27;46311;-69
2023/01/28 10:04:21;;;;;;;3.90;3.03;;;14.40;38.70;;;;;;5098771;27;45424;-69
2023/01/28 10:06:59;;;;;;;4.45;3.15;;;14.40;38.80;;;;;;5100098;27;45228;-69
2023/01/28 10:09:35;;;;;;;3.92;3.10;;;14.40;38.90;;;;;;5103178;27;45456;-68
2023/01/28 10:12:41;;;;;;;7.28;3.20;;;14.40;38.80;;;;;;5102895;27;46470;-69
2023/01/28 10:15:29;;;;;;;3.80;3.40;;;14.30;38.80;;;;;;5098527;27;45422;-69
2023/01/28 10:18:04;;;;;;;4.65;3.42;;;14.30;38.70;;;;;;5103097;27;45255;-70
2023/01/28 10:20:36;;;;;;;5.05;3.90;;;14.30;38.70;;;;;;5101920;27;45372;-69
2023/01/28 10:23:11;;;;;;;5.18;3.75;;;14.30;38.80;;;;;;5103195;27;45480;-69
2023/01/28 10:25:42;;;;;;;4.57;3.67;;;14.30;38.70;;;;;;5102382;27;45478;-69
2023/01/28 10:28:19;;;;;;;5.35;3.90;;;14.30;38.80;;;;;;5085653;27;45405;-69
2023/01/28 10:30:47;;;;;;;5.65;4.05;;;14.30;38.80;;;;;;5095999;27;45355;-69
2023/01/28 10:33:19;;;;;;;6.07;4.10;;;14.40;38.80;;;;;;5102994;27;45401;-69
2023/01/28 10:35:47;;;;;;;7.25;4.10;;;14.40;38.80;;;;;;5101108;27;45720;-69
2023/01/28 10:38:17;;;;;;;5.57;4.10;;;14.40;38.70;;;;;;5099593;27;45364;-69
2023/01/28 10:40:46;;;;;;;6.20;4.25;;;14.40;38.70;;;;;;5101800;27;45274;-69
2023/01/28 10:43:15;;;;;;;6.80;4.72;;;14.40;38.60;;;;;;5103173;27;46994;-69
2023/01/28 10:45:48;;;;;;;6.40;3.95;;;14.40;38.70;;;;;;5096940;27;45298;-69
2023/01/28 10:48:22;;;;;;;5.88;4.00;;;14.30;38.60;;;;;;5103055;27;45265;-69
2023/01/28 10:50:51;;;;;;;6.22;4.57;;;14.40;38.60;;;;;;5102975;27;45463;-69
2023/01/28 10:53:18;;;;;;;5.20;3.97;;;14.30;38.60;;;;;;5101524;27;47477;-69
2023/01/28 10:55:52;;;;;;;6.03;4.68;;;14.30;38.60;;;;;;5101888;27;45513;-68
2023/01/28 10:58:22;;;;;;;9.98;4.97;;;14.30;38.50;;;;;;5106214;27;45226;-69
2023/01/28 11:00:54;;;;;;;6.72;4.55;;;14.30;38.60;;;;;;5106352;27;45335;-68
2023/01/28 11:03:26;;;;;;;7.28;4.43;;;14.30;38.70;;;;;;5105349;27;45469;-69
2023/01/28 11:05:54;;;;;;;7.63;4.78;;;14.30;38.50;;;;;;5105736;27;45323;-69
2023/01/28 11:08:23;;;;;;;7.40;5.07;;;14.30;38.70;;;;;;5106754;27;45347;-69
2023/01/28 11:10:51;;;;;;;8.75;5.35;;;14.30;38.50;;;;;;5104837;27;45526;-69
2023/01/28 11:13:20;;;;;;;9.27;5.32;;;14.30;38.50;;;;;;5101549;27;46628;-69
2023/01/28 11:15:48;;;;;;;7.22;5.55;;;14.40;38.50;;;;;;5105303;27;45421;-68
2023/01/28 11:18:18;;;;;;;8.48;5.63;;;14.40;38.20;;;;;;5106208;27;45319;-69
2023/01/28 11:20:53;;;;;;;8.38;6.18;;;14.40;39.60;;;;;;5106150;27;45759;-68
2023/01/28 11:23:23;;;;;;;9.15;5.93;;;14.30;38.30;;;;;;5106048;27;45588;-68
2023/01/28 11:26:01;;;;;;;8.13;5.97;;;14.30;38.40;;;;;;5105515;27;45312;-69
2023/01/28 11:28:28;;;;;;;6.75;5.40;;;14.30;38.30;;;;;;5101090;27;45398;-69
2023/01/28 11:30:58;;;;;;;9.25;5.40;;;14.30;38.30;;;;;;5106127;27;45671;-69
2023/01/28 11:33:32;;;;;;;9.43;6.05;;;14.30;38.30;;;;;;5105502;27;46512;-68
2023/01/28 11:36:06;;;;;;;7.85;5.97;;;14.30;39.60;;;;;;5105205;27;45364;-69
2023/01/28 11:38:33;;;;;;;7.90;5.60;;;14.30;41.80;;;;;;5104223;27;45293;-69
2023/01/28 11:41:00;;;;;;;8.88;6.05;;;14.30;40.70;;;;;;5105634;27;45469;-69
2023/01/28 11:43:29;;;;;;;8.63;5.82;;;14.30;40.00;;;;;;5105240;27;45539;-69
2023/01/28 11:46:08;;;;;;;8.90;6.43;;;14.30;39.70;;;;;;5099919;27;45351;-68
2023/01/28 11:48:41;;;;;;;8.40;6.07;;;14.40;39.50;;;;;;5105093;27;45276;-69
2023/01/28 11:51:26;;;;;;;8.75;6.35;;;14.40;39.10;;;;;;5105488;27;45481;-69
2023/01/28 11:54:09;;;;;;;11.07;6.55;;;14.40;38.80;;;;;;5099287;27;45250;-69
2023/01/28 11:56:46;;;;;;;10.43;6.72;;;14.40;38.70;;;;;;5104681;27;45306;-69
2023/01/28 11:59:38;;;;;;;9.00;6.07;;;14.40;38.60;;;;;;5105468;27;45244;-69
2023/01/28 12:02:14;;;;;;;8.98;6.40;;;14.40;38.70;;;;;;5099471;27;45368;-69
2023/01/28 12:04:57;;;;;;;9.63;6.80;;;14.30;38.70;;;;;;5101859;27;45283;-69
2023/01/28 12:07:37;;;;;;;8.35;6.40;;;14.30;38.50;;;;;;5102667;27;45382;-69
2023/01/28 12:10:15;;;;;;;9.68;6.55;;;14.30;38.50;;;;;;5104945;27;45375;-68
2023/01/28 12:12:53;;;;;;;11.00;7.15;;;14.30;38.30;;;;;;5097637;27;45341;-68
2023/01/28 12:15:48;;;;;;;9.05;6.38;;;14.30;38.30;;;;;;5102270;27;47165;-68
2023/01/28 12:18:27;;;;;;;9.07;5.97;;;14.30;38.20;;;;;;5104360;27;45329;-69
2023/01/28 12:21:07;;;;;;;7.15;5.53;;;14.30;38.30;;;;;;5105298;27;45448;-69
2023/01/28 12:23:49;;;;;;;9.38;6.13;;;14.30;38.20;;;;;;5107554;27;45547;-69
2023/01/28 12:26:23;;;;;;;8.15;5.90;;;14.30;38.10;;;;;;5102221;27;46351;-69
2023/01/28 12:29:05;;;;;;;7.50;5.60;;;14.30;38.00;;;;;;5102714;27;45331;-69
2023/01/28 12:31:57;;;;;;;8.18;6.35;;;14.30;37.80;;;;;;5099369;27;45586;-69
2023/01/28 12:34:59;;;;;;;9.35;6.15;;;14.30;37.70;;;;;;5094555;27;45466;-69
2023/01/28 12:37:37;;;;;;;8.70;6.28;;;14.30;37.80;;;;;;5104022;27;48165;-69
2023/01/28 12:40:16;;;;;;;7.50;5.97;;;14.30;38.00;;;;;;5105660;27;45337;-69
2023/01/28 12:42:50;;;;;;;9.25;6.68;;;14.30;38.00;;;;;;5109365;27;45439;-69
2023/01/28 12:45:21;;;;;;;9.68;6.35;;;14.30;37.90;;;;;;5103393;27;45441;-69
2023/01/28 12:48:00;;;;;;;8.95;6.25;;;14.30;38.30;;;;;;5092650;27;45465;-68
2023/01/28 12:50:31;;;;;;;12.57;6.78;;;14.40;39.10;;;;;;5088203;27;45884;-69
2023/01/28 12:53:03;;;;;;;12.43;5.65;;;14.60;39.40;;;;;;5093156;27;45391;-68
2023/01/28 12:55:40;;;;;;;26.73;6.97;;;14.70;41.80;;;;;;5097559;27;45420;-68
2023/01/28 12:58:15;;;;;;;35.97;7.60;;;14.90;41.80;;;;;;5100607;27;45341;-69
2023/01/28 13:00:48;;;;;;;23.65;7.40;;;14.90;41.50;;;;;;5093962;27;46105;-69
2023/01/28 13:03:20;;;;;;;24.65;6.57;;;14.90;41.70;;;;;;5087209;27;45539;-69
2023/01/28 13:05:51;;;;;;;22.27;6.47;;;15.00;42.50;;;;;;5091293;27;45446;-69
2023/01/28 13:08:23;;;;;;;17.70;6.35;;;14.90;40.00;;;;;;5100492;27;46536;-68
2023/01/28 13:10:52;;;;;;;17.90;6.90;;;14.80;39.40;;;;;;5093148;27;45372;-70
2023/01/28 13:13:25;;;;;;;13.48;6.60;;;14.70;39.30;;;;;;5096352;27;45427;-69
2023/01/28 13:15:52;;;;;;;14.48;6.75;;;14.60;39.20;;;;;;5092499;27;45424;-69
2023/01/28 13:18:32;;;;;;;13.73;7.05;;;14.60;39.80;;;;;;5097503;27;45407;-69
2023/01/28 13:21:05;;;;;;;9.60;6.28;;;14.60;39.70;;;;;;5103797;27;45561;-69
2023/01/28 13:23:42;;;;;;;20.85;6.60;;;14.60;39.30;;;;;;5102423;27;45675;-69
2023/01/28 13:26:26;;;;;;;13.70;6.90;;;14.70;39.80;;;;;;5091586;27;45325;-68
2023/01/28 13:29:06;;;;;;;9.48;6.15;;;14.60;38.90;;;;;;5096133;27;45516;-68
2023/01/28 13:31:39;;;;;;;19.63;6.55;;;14.50;38.50;;;;;;5103183;27;45414;-68
2023/01/28 13:34:07;;;;;;;10.43;5.45;;;14.50;38.50;;;;;;5089267;27;45475;-68